Time;durP1;ratioP1;P1;durP2;ratioP2;P2;SDS_P1;SDS_P2;PMS_P1;PMS_P2;Temp;Humidity;BMP_temperature;BMP_pressure;BME280_temperature;BME280_humidity;BME280_pressure;Samples;Min_cycle;Max_cycle;Signal;HPM_P1;HPM_P2
2022/08/25 00:03:49;;;;;;;20.63;7.05;;;19.20;99.90;;;;;;10381594;28;20100;-83
2022/08/25 00:08:50;;;;;;;13.77;7.10;;;19.00;99.90;;;;;;10375135;28;20485;-83
2022/08/25 00:13:53;;;;;;;14.75;7.00;;;19.00;99.90;;;;;;10383752;28;20025;-83
2022/08/25 00:18:57;;;;;;;20.38;8.02;;;18.90;99.90;;;;;;10385993;28;20068;-84
2022/08/25 00:23:59;;;;;;;11.45;7.07;;;18.90;99.90;;;;;;10386804;28;20026;-83
2022/08/25 00:28:59;;;;;;;12.50;7.35;;;18.90;99.90;;;;;;10367980;28;20038;-83
2022/08/25 00:34:00;;;;;;;16.30;8.20;;;19.00;99.90;;;;;;10355713;28;20026;-83
2022/08/25 00:39:01;;;;;;;12.48;7.00;;;19.00;99.90;;;;;;10376324;28;20049;-82
2022/08/25 00:44:05;;;;;;;16.98;7.28;;;19.00;99.90;;;;;;10376203;28;20018;-82
2022/08/25 00:49:18;;;;;;;16.67;7.07;;;19.00;99.90;;;;;;10380904;28;20045;-83
2022/08/25 00:54:32;;;;;;;15.57;8.02;;;19.00;99.90;;;;;;10363727;28;20036;-82
2022/08/25 00:59:33;;;;;;;14.45;7.28;;;19.00;99.90;;;;;;10386685;28;20030;-83
2022/08/25 01:04:36;;;;;;;18.23;7.35;;;18.90;99.90;;;;;;10379424;28;20029;-83
2022/08/25 01:09:37;;;;;;;18.85;8.80;;;18.90;99.90;;;;;;10377458;28;20046;-83
2022/08/25 01:14:38;;;;;;;17.10;7.97;;;18.90;99.90;;;;;;10386100;28;20041;-83
2022/08/25 01:19:39;;;;;;;23.92;8.98;;;18.90;99.90;;;;;;10403603;28;20582;-83
2022/08/25 01:24:46;;;;;;;17.33;8.32;;;18.80;99.90;;;;;;10383725;28;20029;-83
2022/08/25 01:29:48;;;;;;;14.15;8.45;;;18.80;99.90;;;;;;10374253;28;20524;-82
2022/08/25 01:34:48;;;;;;;17.02;7.80;;;18.70;99.90;;;;;;10401102;28;20026;-83
2022/08/25 01:39:49;;;;;;;17.42;7.95;;;18.70;99.90;;;;;;10386219;28;20057;-83
2022/08/25 01:44:50;;;;;;;16.70;7.97;;;18.60;99.90;;;;;;10396149;28;20116;-84
2022/08/25 01:49:50;;;;;;;18.55;11.27;;;18.60;99.90;;;;;;10401531;28;20045;-83
2022/08/25 01:54:51;;;;;;;14.27;8.70;;;18.50;99.90;;;;;;10375253;28;20073;-84
2022/08/25 01:59:52;;;;;;;17.63;8.25;;;18.40;99.90;;;;;;10373783;28;20026;-82
2022/08/25 02:04:53;;;;;;;14.80;8.60;;;18.40;99.90;;;;;;10389205;28;20033;-82
2022/08/25 02:09:53;;;;;;;24.27;13.10;;;18.30;99.90;;;;;;10399917;28;20041;-83
2022/08/25 02:14:54;;;;;;;20.33;10.65;;;18.30;99.90;;;;;;10399645;28;20454;-83
2022/08/25 02:19:55;;;;;;;17.83;10.32;;;18.40;99.90;;;;;;10349885;28;20519;-83
2022/08/25 02:24:56;;;;;;;22.55;10.35;;;18.40;99.90;;;;;;10334769;28;20462;-84
2022/08/25 02:29:56;;;;;;;22.13;10.60;;;18.40;99.90;;;;;;10332003;28;20109;-83
2022/08/25 02:34:57;;;;;;;18.63;9.82;;;18.50;99.90;;;;;;10327032;28;20540;-83
2022/08/25 02:39:58;;;;;;;16.27;9.00;;;18.50;99.90;;;;;;10338256;28;20038;-84
2022/08/25 02:44:59;;;;;;;20.27;9.38;;;18.50;99.90;;;;;;10326934;28;20093;-83
2022/08/25 02:49:59;;;;;;;24.02;10.15;;;18.50;99.90;;;;;;10341657;28;20141;-82
2022/08/25 02:55:03;;;;;;;21.80;10.25;;;18.50;99.90;;;;;;10333301;28;20038;-82
2022/08/25 03:00:05;;;;;;;23.38;10.85;;;18.50;99.90;;;;;;10331581;28;20023;-83
2022/08/25 03:05:06;;;;;;;25.83;9.93;;;18.50;99.90;;;;;;10325411;28;20402;-82
2022/08/25 03:10:12;;;;;;;20.27;10.23;;;18.50;99.90;;;;;;10335444;28;20603;-83
2022/08/25 03:15:15;;;;;;;19.55;10.20;;;18.50;99.90;;;;;;10318874;28;20036;-84
2022/08/25 03:20:16;;;;;;;23.90;10.38;;;18.50;99.90;;;;;;10351226;28;20091;-81
2022/08/25 03:30:36;;;;;;;25.70;11.23;;;18.40;99.90;;;;;;10364399;28;20045;-82
2022/08/25 03:35:37;;;;;;;22.30;11.18;;;18.50;99.90;;;;;;10365884;28;20037;-83
2022/08/25 03:40:37;;;;;;;22.55;11.80;;;18.50;99.90;;;;;;10358282;28;20029;-84
2022/08/25 03:45:43;;;;;;;26.52;13.27;;;18.60;99.90;;;;;;10358296;28;20387;-83
2022/08/25 03:50:50;;;;;;;23.70;11.60;;;18.50;99.90;;;;;;10365250;28;20046;-83
2022/08/25 03:55:50;;;;;;;22.60;12.32;;;18.50;99.90;;;;;;10366716;28;20478;-82
2022/08/25 04:00:51;;;;;;;22.02;12.35;;;18.50;99.90;;;;;;10375902;28;20037;-82
2022/08/25 04:05:51;;;;;;;20.23;10.65;;;18.60;99.90;;;;;;10342744;28;20120;-81
2022/08/25 04:10:53;;;;;;;23.35;12.10;;;18.60;99.90;;;;;;10336373;28;20052;-82
2022/08/25 04:15:53;;;;;;;21.10;11.52;;;18.60;99.90;;;;;;10342217;28;20145;-81
2022/08/25 04:21:02;;;;;;;22.83;11.27;;;18.60;99.90;;;;;;10338956;28;20148;-85
2022/08/25 04:26:11;;;;;;;24.73;11.30;;;18.80;99.90;;;;;;10352524;28;20480;-85
2022/08/25 04:31:14;;;;;;;19.27;10.90;;;18.80;99.90;;;;;;10335515;28;20380;-85
2022/08/25 04:36:16;;;;;;;18.63;10.05;;;18.90;99.90;;;;;;10351367;28;20026;-84
2022/08/25 04:41:20;;;;;;;26.08;10.00;;;18.90;99.90;;;;;;10357865;28;20105;-85
2022/08/25 04:46:30;;;;;;;21.03;9.73;;;18.90;99.90;;;;;;10347881;28;20026;-82
2022/08/25 04:51:35;;;;;;;23.85;9.45;;;19.00;99.90;;;;;;10347758;28;20069;-83
2022/08/25 04:56:38;;;;;;;17.73;8.88;;;19.00;99.90;;;;;;10341883;28;20762;-84
2022/08/25 05:01:40;;;;;;;24.08;9.27;;;19.20;99.90;;;;;;10331954;28;20025;-84
2022/08/25 05:06:42;;;;;;;21.95;9.45;;;19.20;99.90;;;;;;10355001;28;20026;-85
2022/08/25 05:11:43;;;;;;;20.15;9.13;;;19.30;99.90;;;;;;10340703;28;20025;-84
2022/08/25 05:16:43;;;;;;;25.25;9.60;;;19.30;99.90;;;;;;10382965;28;20029;-84
2022/08/25 05:21:44;;;;;;;21.27;9.40;;;19.40;99.90;;;;;;10389925;28;20505;-84
2022/08/25 05:26:45;;;;;;;17.90;8.10;;;19.50;99.90;;;;;;10403928;28;20045;-85
2022/08/25 05:31:45;;;;;;;25.00;9.35;;;19.50;99.90;;;;;;10407889;28;20141;-84
2022/08/25 05:36:47;;;;;;;33.75;10.15;;;19.60;99.90;;;;;;10397050;28;20044;-85
2022/08/25 05:41:48;;;;;;;22.30;9.35;;;19.60;99.90;;;;;;10396883;28;20025;-86
2022/08/25 05:46:49;;;;;;;31.63;9.23;;;19.80;99.90;;;;;;10400091;28;20033;-84
2022/08/25 05:51:49;;;;;;;19.95;8.45;;;19.80;99.90;;;;;;10404702;28;20389;-84
2022/08/25 05:56:50;;;;;;;18.55;8.00;;;19.80;99.90;;;;;;10402151;28;20033;-85
2022/08/25 06:07:09;;;;;;;27.13;8.20;;;20.10;99.90;;;;;;10394310;28;20037;-84
2022/08/25 06:12:11;;;;;;;22.38;8.32;;;20.30;99.90;;;;;;10391201;28;20037;-85
2022/08/25 06:17:11;;;;;;;18.45;7.75;;;20.50;99.90;;;;;;10394954;28;20057;-84
2022/08/25 06:22:12;;;;;;;18.85;7.45;;;20.60;99.90;;;;;;10363618;28;20044;-85
2022/08/25 06:27:13;;;;;;;21.85;7.60;;;20.80;99.90;;;;;;10360964;28;20360;-85
2022/08/25 06:32:13;;;;;;;18.92;7.50;;;20.90;99.90;;;;;;10328896;28;20520;-84
2022/08/25 06:37:14;;;;;;;22.00;7.75;;;20.90;99.90;;;;;;10339417;28;20091;-84
2022/08/25 06:42:14;;;;;;;21.58;8.30;;;21.10;99.90;;;;;;10361119;28;20026;-85
2022/08/25 06:47:16;;;;;;;24.08;7.50;;;21.30;99.90;;;;;;10366129;28;20041;-85
2022/08/25 06:52:17;;;;;;;18.50;7.22;;;21.50;99.90;;;;;;10352282;28;20048;-85
2022/08/25 06:57:17;;;;;;;21.67;6.93;;;21.80;99.90;;;;;;10352713;28;20049;-84
2022/08/25 07:02:19;;;;;;;22.55;7.43;;;22.00;99.90;;;;;;10358458;28;20030;-85
2022/08/25 07:07:20;;;;;;;25.35;7.68;;;22.10;99.90;;;;;;10363111;28;20145;-84
2022/08/25 07:12:20;;;;;;;21.05;6.22;;;22.30;99.90;;;;;;10360144;28;20036;-86
2022/08/25 07:17:22;;;;;;;22.50;6.57;;;22.50;99.90;;;;;;10333706;28;20519;-84
2022/08/25 07:22:23;;;;;;;26.25;6.82;;;22.80;99.90;;;;;;10353584;28;20526;-85
2022/08/25 07:27:25;;;;;;;22.00;6.60;;;23.00;99.90;;;;;;10352376;28;20036;-85
2022/08/25 07:44:21;;;;;;;20.45;5.68;;;23.90;99.90;;;;;;10323099;28;20042;-86
2022/08/25 07:49:23;;;;;;;24.85;7.38;;;24.20;99.90;;;;;;10351133;28;20456;-86
2022/08/25 07:54:26;;;;;;;24.75;6.63;;;24.50;99.90;;;;;;10334673;28;20068;-86
2022/08/25 07:59:26;;;;;;;22.48;6.47;;;24.60;99.90;;;;;;10342566;28;20037;-85
2022/08/25 08:04:27;;;;;;;24.15;7.47;;;24.80;99.90;;;;;;10352679;28;20448;-85
2022/08/25 08:09:30;;;;;;;33.83;7.30;;;25.00;99.90;;;;;;10348533;28;20039;-87
2022/08/25 08:14:31;;;;;;;24.45;6.35;;;25.20;99.90;;;;;;10341588;28;20040;-85
2022/08/25 08:19:31;;;;;;;30.67;7.75;;;25.30;99.90;;;;;;10344950;28;20063;-85
2022/08/25 08:24:37;;;;;;;25.20;7.57;;;25.60;99.90;;;;;;10375817;28;20056;-85
2022/08/25 08:29:39;;;;;;;22.77;6.45;;;25.60;99.90;;;;;;10380438;28;20127;-85
2022/08/25 08:34:40;;;;;;;30.10;7.88;;;25.70;99.90;;;;;;10369707;28;20069;-85
2022/08/25 08:39:41;;;;;;;28.85;8.55;;;26.00;99.90;;;;;;10384278;28;20029;-85
2022/08/25 08:45:06;;;;;;;24.83;7.20;;;26.20;99.90;;;;;;10384420;28;20156;-84
2022/08/25 08:50:22;;;;;;;26.90;6.75;;;26.40;99.90;;;;;;10356064;28;20521;-86
2022/08/25 08:55:30;;;;;;;23.67;7.13;;;26.70;99.90;;;;;;10399974;28;20037;-85
2022/08/25 09:00:36;;;;;;;24.15;7.05;;;26.80;99.90;;;;;;10389817;28;20061;-84
2022/08/25 09:05:50;;;;;;;27.08;7.30;;;27.10;99.90;;;;;;10371609;28;20720;-85
2022/08/25 09:11:32;;;;;;;26.33;6.78;;;27.30;99.90;;;;;;10393833;28;20033;-85
2022/08/25 09:16:54;;;;;;;29.40;7.00;;;27.60;99.90;;;;;;10336487;28;20180;-85
2022/08/25 09:22:20;;;;;;;38.67;7.82;;;27.80;99.90;;;;;;10390308;28;20072;-85
2022/08/25 09:27:32;;;;;;;32.70;7.43;;;28.00;97.20;;;;;;10377334;28;20096;-86
2022/08/25 09:32:45;;;;;;;23.30;7.80;;;27.70;96.10;;;;;;10392251;28;20036;-85
2022/08/25 09:38:04;;;;;;;25.08;7.18;;;27.70;96.40;;;;;;10378327;28;20053;-85
2022/08/25 09:43:36;;;;;;;75.00;43.72;;;28.00;96.70;;;;;;10401434;28;20045;-86
2022/08/25 09:48:52;;;;;;;36.35;16.58;;;28.10;95.10;;;;;;10406243;28;20048;-86
2022/08/25 09:53:58;;;;;;;30.33;7.57;;;28.20;96.80;;;;;;10394693;28;20025;-85
2022/08/25 09:59:26;;;;;;;19.35;5.85;;;28.30;93.30;;;;;;10395177;28;20033;-85
2022/08/25 10:04:36;;;;;;;24.13;7.35;;;28.70;96.10;;;;;;10358780;28;20100;-86
2022/08/25 10:09:41;;;;;;;31.02;6.65;;;28.90;95.00;;;;;;10404666;28;20039;-86
2022/08/25 10:14:42;;;;;;;22.58;7.35;;;28.70;91.70;;;;;;10396471;28;20513;-86
2022/08/25 10:19:43;;;;;;;28.00;7.43;;;28.60;92.20;;;;;;10374158;28;20054;-85
2022/08/25 10:24:43;;;;;;;29.40;8.68;;;28.60;92.50;;;;;;10355702;28;20022;-85
2022/08/25 10:41:31;;;;;;;20.02;7.03;;;29.00;94.20;;;;;;10363226;28;20034;-85
2022/08/25 10:46:52;;;;;;;31.30;12.43;;;29.20;91.50;;;;;;10336532;28;20038;-85
2022/08/25 10:52:02;;;;;;;28.42;9.88;;;29.00;91.50;;;;;;10353455;28;20549;-85
2022/08/25 10:57:26;;;;;;;28.30;8.25;;;28.90;91.70;;;;;;10351041;28;20133;-85
2022/08/25 11:02:45;;;;;;;30.98;7.55;;;29.30;91.60;;;;;;10352388;28;20117;-86
2022/08/25 11:07:50;;;;;;;36.72;11.07;;;29.60;92.80;;;;;;10337419;28;20026;-85
2022/08/25 11:12:55;;;;;;;38.65;15.15;;;29.70;89.50;;;;;;10351235;28;20116;-85
2022/08/25 11:18:04;;;;;;;38.10;14.68;;;29.50;87.70;;;;;;10342025;28;20084;-85
2022/08/25 11:23:24;;;;;;;23.98;7.65;;;29.60;89.70;;;;;;10391803;28;20022;-85
2022/08/25 11:28:46;;;;;;;44.20;14.15;;;29.80;85.90;;;;;;10395836;28;20044;-85
2022/08/25 11:33:49;;;;;;;35.17;10.10;;;30.00;86.90;;;;;;10389667;28;20048;-85
2022/08/25 11:39:10;;;;;;;26.50;7.40;;;29.80;88.20;;;;;;10394203;28;20149;-85
2022/08/25 11:44:36;;;;;;;25.20;8.27;;;29.50;86.30;;;;;;10378073;28;20021;-84
2022/08/25 11:49:56;;;;;;;26.98;8.43;;;29.70;82.50;;;;;;10395305;28;20111;-85
2022/08/25 11:55:42;;;;;;;22.55;6.90;;;29.90;85.50;;;;;;10381366;28;20060;-86
2022/08/25 12:00:43;;;;;;;30.70;9.43;;;30.10;82.40;;;;;;10372990;28;20041;-85
2022/08/25 12:06:11;;;;;;;31.05;11.02;;;30.50;79.40;;;;;;10356323;28;20091;-85
2022/08/25 12:35:39;;;;;;;26.55;7.22;;;30.40;75.20;;;;;;9547169;30;20059;-86
2022/08/25 12:40:42;;;;;;;29.70;9.00;;;30.20;76.80;;;;;;9567852;30;20034;-85
2022/08/25 12:58:09;;;;;;;36.70;7.85;;;30.40;76.00;;;;;;9593406;30;20047;-87
2022/08/25 13:03:52;;;;;;;25.98;6.03;;;30.50;73.60;;;;;;9584996;30;20141;-86
2022/08/25 13:09:15;;;;;;;21.38;6.22;;;30.70;74.30;;;;;;9583078;30;20043;-87
2022/08/25 13:20:36;;;;;;;21.65;5.68;;;30.90;70.00;;;;;;9548299;31;20036;-86
2022/08/25 13:26:27;;;;;;;16.60;5.37;;;30.60;69.50;;;;;;9538868;30;20426;-86
2022/08/25 13:31:57;;;;;;;19.60;4.97;;;30.60;72.10;;;;;;9507361;31;20348;-88
2022/08/25 13:49:19;;;;;;;17.00;5.40;;;30.60;67.10;;;;;;9516954;31;20060;-86
2022/08/25 13:54:36;;;;;;;26.27;7.00;;;30.30;70.20;;;;;;9502375;31;20509;-85
2022/08/25 13:59:39;;;;;;;20.45;5.70;;;30.20;68.60;;;;;;9515344;30;20481;-85
2022/08/25 14:04:39;;;;;;;18.25;5.78;;;30.10;68.80;;;;;;9550517;31;20075;-84
2022/08/25 14:16:23;;;;;;;13.43;4.30;;;29.80;68.30;;;;;;9469159;31;20040;-87
2022/08/25 14:21:25;;;;;;;;;;;29.80;69.80;;;;;;9537575;31;20078;-86
2022/08/25 14:26:26;;;;;;;20.08;5.50;;;29.70;70.20;;;;;;9547429;31;20672;-84
2022/08/25 14:31:28;;;;;;;17.92;4.90;;;29.50;71.20;;;;;;9542257;31;20052;-85
2022/08/25 14:36:30;;;;;;;21.70;5.40;;;29.50;68.60;;;;;;9546908;30;20039;-85
2022/08/25 14:41:33;;;;;;;25.42;7.40;;;29.50;69.60;;;;;;9546140;31;20046;-84
2022/08/25 14:46:37;;;;;;;21.77;6.70;;;29.40;70.70;;;;;;9517584;31;20047;-85
2022/08/25 14:51:41;;;;;;;18.38;5.68;;;29.30;69.10;;;;;;9552459;31;20062;-87
2022/08/25 14:56:42;;;;;;;17.35;6.00;;;29.20;70.20;;;;;;9527680;31;20040;-87
2022/08/25 15:01:43;;;;;;;18.67;5.20;;;29.10;68.50;;;;;;9532859;31;20049;-85
2022/08/25 15:06:44;;;;;;;18.70;5.28;;;29.00;69.20;;;;;;9545774;31;20118;-86
2022/08/25 15:17:46;;;;;;;18.30;5.38;;;28.90;70.80;;;;;;9544495;30;20035;-86
2022/08/25 15:22:47;;;;;;;15.00;5.63;;;28.80;73.30;;;;;;9543502;31;20064;-85
2022/08/25 16:04:35;;;;;;;19.73;5.05;;;28.20;71.50;;;;;;9441293;31;20048;-85
2022/08/25 16:09:36;;;;;;;13.68;4.75;;;28.10;73.10;;;;;;9565647;30;20055;-84
2022/08/25 16:14:42;;;;;;;16.77;5.30;;;28.00;75.00;;;;;;9561151;30;20051;-86
2022/08/25 16:19:47;;;;;;;16.75;5.57;;;27.80;73.90;;;;;;9519078;31;20046;-84
2022/08/25 16:24:49;;;;;;;21.23;6.65;;;27.70;75.10;;;;;;9535670;31;20071;-85
2022/08/25 16:29:49;;;;;;;15.75;5.15;;;27.50;74.00;;;;;;9517339;31;20055;-85
2022/08/25 16:34:50;;;;;;;21.33;4.80;;;27.40;74.40;;;;;;9531303;31;20490;-87
2022/08/25 16:39:52;;;;;;;13.30;4.53;;;27.30;76.50;;;;;;9524642;31;20047;-85
2022/08/25 17:03:11;;;;;;;14.77;4.50;;;25.90;82.90;;;;;;9455795;31;20503;-86
2022/08/25 17:08:28;;;;;;;20.20;5.47;;;25.70;84.60;;;;;;9518512;31;20059;-86
2022/08/25 17:13:28;;;;;;;12.50;5.03;;;25.50;85.20;;;;;;9538544;31;20044;-85
2022/08/25 17:18:29;;;;;;;13.13;5.35;;;25.30;87.00;;;;;;9547574;30;20036;-86
2022/08/25 17:23:31;;;;;;;21.92;6.65;;;25.00;88.80;;;;;;9540246;31;20135;-86
2022/08/25 17:28:32;;;;;;;16.98;6.28;;;24.60;89.10;;;;;;9550196;31;20051;-87
2022/08/25 17:33:44;;;;;;;15.60;6.40;;;24.40;90.00;;;;;;9553729;31;20043;-87
2022/08/25 17:38:46;;;;;;;22.48;6.55;;;24.20;90.60;;;;;;9542893;31;20043;-86
2022/08/25 17:43:46;;;;;;;21.75;6.40;;;23.80;91.10;;;;;;9527979;31;20078;-86
2022/08/25 17:48:47;;;;;;;15.65;6.10;;;23.60;91.70;;;;;;9537944;31;20056;-86
2022/08/25 17:53:49;;;;;;;18.33;7.47;;;23.40;92.90;;;;;;9532566;31;20425;-81
2022/08/25 17:58:53;;;;;;;19.20;6.72;;;23.20;94.20;;;;;;9544774;31;20542;-83
2022/08/25 18:03:58;;;;;;;19.35;7.28;;;23.00;95.50;;;;;;9530183;31;20179;-83
2022/08/25 18:09:00;;;;;;;26.40;10.63;;;22.80;97.40;;;;;;9535628;31;20692;-84
2022/08/25 18:14:01;;;;;;;33.28;12.27;;;22.70;99.50;;;;;;9528794;31;20911;-82
2022/08/25 18:19:02;;;;;;;27.77;10.45;;;22.60;99.90;;;;;;9537084;30;20048;-85
2022/08/25 18:24:04;;;;;;;21.17;8.13;;;22.40;99.90;;;;;;9543121;31;20055;-85
2022/08/25 18:29:05;;;;;;;20.85;7.28;;;22.30;99.90;;;;;;9540767;31;20098;-84
2022/08/25 18:34:09;;;;;;;26.00;6.50;;;22.20;99.90;;;;;;9538119;31;20043;-84
2022/08/25 18:44:33;;;;;;;28.00;7.38;;;22.10;99.90;;;;;;9541235;31;20051;-85
2022/08/25 18:49:34;;;;;;;18.50;6.43;;;22.00;99.90;;;;;;9545003;31;20473;-84
2022/08/25 18:54:53;;;;;;;23.35;6.78;;;22.00;99.90;;;;;;9554175;30;20067;-84
2022/08/25 18:59:54;;;;;;;33.53;7.78;;;21.90;99.90;;;;;;9544454;31;20118;-85
2022/08/25 19:04:54;;;;;;;19.65;6.40;;;21.80;99.90;;;;;;9551143;31;20043;-85
2022/08/25 19:10:21;;;;;;;18.42;6.55;;;21.70;99.90;;;;;;9541971;31;20394;-86
2022/08/25 19:15:21;;;;;;;21.80;8.13;;;21.60;99.90;;;;;;9534144;31;20063;-87
2022/08/25 19:20:23;;;;;;;24.45;7.68;;;21.50;99.90;;;;;;9545389;31;20429;-85
2022/08/25 19:25:25;;;;;;;26.17;7.75;;;21.40;99.90;;;;;;9526362;31;20039;-83
2022/08/25 19:30:28;;;;;;;18.05;8.38;;;21.40;99.90;;;;;;9544196;31;20135;-85
2022/08/25 19:35:48;;;;;;;21.73;7.55;;;21.40;99.90;;;;;;9523165;31;20042;-87
2022/08/25 19:40:50;;;;;;;26.13;8.18;;;21.40;99.90;;;;;;9529572;31;20131;-86
2022/08/25 19:45:50;;;;;;;19.65;8.23;;;21.30;99.90;;;;;;9528293;31;20070;-82
2022/08/25 19:50:51;;;;;;;21.48;8.02;;;21.30;99.90;;;;;;9534934;31;20054;-82
2022/08/25 19:55:53;;;;;;;25.98;8.77;;;21.30;99.90;;;;;;9539186;31;20055;-82
2022/08/25 20:00:53;;;;;;;22.95;8.73;;;21.20;99.90;;;;;;9544808;30;20039;-82
2022/08/25 20:05:55;;;;;;;23.60;8.73;;;21.30;99.90;;;;;;9549548;31;20095;-82
2022/08/25 20:10:56;;;;;;;26.20;9.05;;;21.30;99.90;;;;;;9544190;31;20139;-81
2022/08/25 20:15:57;;;;;;;17.25;8.75;;;21.30;99.90;;;;;;9535085;31;20122;-81
2022/08/25 20:20:57;;;;;;;21.23;8.57;;;21.30;99.90;;;;;;9549578;31;20044;-81
2022/08/25 20:25:58;;;;;;;20.77;7.60;;;21.20;99.90;;;;;;9539874;31;20044;-82
2022/08/25 20:30:58;;;;;;;30.15;7.88;;;21.30;99.90;;;;;;9556999;31;20110;-81
2022/08/25 20:36:00;;;;;;;22.60;8.57;;;21.40;99.90;;;;;;9543982;31;20518;-81
2022/08/25 20:41:01;;;;;;;25.05;8.00;;;21.40;99.90;;;;;;9542306;31;20182;-82
2022/08/25 20:46:04;;;;;;;16.13;8.02;;;21.30;99.90;;;;;;9540783;31;20351;-82
2022/08/25 20:51:06;;;;;;;27.63;8.18;;;21.30;99.90;;;;;;9548876;31;20051;-82
2022/08/25 20:56:15;;;;;;;28.58;9.20;;;21.30;99.90;;;;;;9529762;31;20060;-81
2022/08/25 21:01:22;;;;;;;24.65;9.02;;;21.30;99.90;;;;;;9547972;31;20560;-81
2022/08/25 21:06:23;;;;;;;21.00;8.50;;;21.30;99.90;;;;;;9540982;31;20477;-81
2022/08/25 21:11:25;;;;;;;20.38;8.75;;;21.30;99.90;;;;;;9534243;31;20052;-82
2022/08/25 21:16:27;;;;;;;24.95;8.98;;;21.30;99.90;;;;;;9538588;31;20056;-81
2022/08/25 21:21:27;;;;;;;26.92;9.40;;;21.30;99.90;;;;;;9545028;31;20687;-82
2022/08/25 21:26:29;;;;;;;19.23;10.05;;;21.20;99.90;;;;;;9556418;31;20043;-81
2022/08/25 21:31:31;;;;;;;23.48;10.02;;;21.10;99.90;;;;;;9554514;31;20502;-82
2022/08/25 21:36:31;;;;;;;24.35;9.80;;;21.00;99.90;;;;;;9545031;31;20121;-82
2022/08/25 21:41:33;;;;;;;27.92;9.98;;;20.90;99.90;;;;;;9546413;31;20401;-81
2022/08/25 21:46:35;;;;;;;25.20;10.45;;;20.90;99.90;;;;;;9546373;31;20047;-82
2022/08/25 21:51:42;;;;;;;25.17;10.63;;;20.80;99.90;;;;;;9543970;31;20044;-81
2022/08/25 21:56:57;;;;;;;21.63;9.48;;;20.70;99.90;;;;;;9560079;31;20267;-82
2022/08/25 22:02:01;;;;;;;30.23;10.85;;;20.70;99.90;;;;;;9549477;31;20561;-81
2022/08/25 22:07:02;;;;;;;22.17;9.73;;;20.60;99.90;;;;;;9543572;31;20054;-81
2022/08/25 22:12:03;;;;;;;24.50;9.38;;;20.60;99.90;;;;;;9547975;31;20417;-81
2022/08/25 22:17:05;;;;;;;23.92;9.35;;;20.50;99.90;;;;;;9545142;31;20148;-81
2022/08/25 22:22:05;;;;;;;28.02;9.40;;;20.50;99.90;;;;;;9543580;31;20486;-81
2022/08/25 22:27:07;;;;;;;23.42;9.38;;;20.40;99.90;;;;;;9545517;31;20059;-81
2022/08/25 22:32:08;;;;;;;18.80;9.00;;;20.30;99.90;;;;;;9549576;31;20046;-80
2022/08/25 22:37:09;;;;;;;19.83;9.52;;;20.30;99.90;;;;;;9543729;31;20387;-81
2022/08/25 22:42:10;;;;;;;15.60;8.23;;;20.30;99.90;;;;;;9553239;31;20075;-80
2022/08/25 22:47:11;;;;;;;22.63;9.35;;;20.30;99.90;;;;;;9539939;31;20099;-81
2022/08/25 22:52:12;;;;;;;16.77;8.93;;;20.10;99.90;;;;;;9542820;31;20043;-81
2022/08/25 22:57:12;;;;;;;18.73;9.15;;;20.00;99.90;;;;;;9543449;31;20064;-80
2022/08/25 23:02:13;;;;;;;20.17;8.68;;;19.70;99.90;;;;;;9541943;31;20178;-82
2022/08/25 23:07:13;;;;;;;15.57;7.97;;;19.60;99.90;;;;;;9538122;31;20130;-80
2022/08/25 23:12:14;;;;;;;17.42;8.35;;;19.60;99.90;;;;;;9542514;31;20469;-81
2022/08/25 23:17:15;;;;;;;18.98;8.75;;;19.40;99.90;;;;;;9550141;30;20581;-81
2022/08/25 23:22:16;;;;;;;17.63;8.50;;;19.40;99.90;;;;;;9540450;31;20762;-82
2022/08/25 23:27:19;;;;;;;20.08;8.18;;;19.30;99.90;;;;;;9546446;31;20082;-82
2022/08/25 23:32:20;;;;;;;14.13;8.40;;;19.30;99.90;;;;;;9550913;30;20501;-81
2022/08/25 23:37:20;;;;;;;12.90;7.03;;;19.30;99.90;;;;;;9550156;31;20039;-82
2022/08/25 23:42:21;;;;;;;20.27;8.35;;;19.30;99.90;;;;;;9550889;31;20066;-80
2022/08/25 23:47:22;;;;;;;21.67;8.40;;;19.30;99.90;;;;;;9546086;31;20068;-80
2022/08/25 23:52:22;;;;;;;17.25;8.50;;;19.40;99.90;;;;;;9549348;31;20077;-80
2022/08/25 23:57:23;;;;;;;13.32;7.28;;;19.40;99.90;;;;;;9547187;31;20070;-81
